Oella, Maryland
Current Conditions -  °F | °C
As of 10:54 AM on Tuesday 21 Oct 2014 (Local Time) from KBWI Reporting Station
Scattered Clouds Scattered Clouds  
Wind Chill: 63°   Ceiling: Unl
Heat Index: 63°   Visibility: 10mi
Dew Point: 49°   Wind: 3mph
Humidity: 60%   Direction: NA
Pressure: 29.87"   Gusts: NA
Location:  39.2601°N, 76.7979°W
Report Text: KBWI 211454Z VRB03KT 10SM FEW060 SCT110 SCT160 SCT250 17/09 A2987 RMK AO2 SLP113 T01720094 50001
Loading
Personal Weather Stations






























Interactive Weather Map
Tropical Storm Tracking
New forecast layout! Learn more

10-Day Weather Forecast

Advertisements
Track Severe Weather on mobile